Aérodrome :
LOGIN :

S'inscrire | Disclaimer

   EN    FR    IT 

 










Légende :    VFR   VFR Marginal   IFR   IFR Intensif   IFR Très Intensif
Visi : 
Plafond : 
>= 8 km
>= 3000ft
5 à 8 km
1000 à 3000 ft
1500m à 5 km
500 à 1000 ft
800 à 1500m
200 à 500 ft
< 800m
< 200 ft
Symboles :   Orages  Brouillard  Fortes neiges  Fortes précipitations  Vent > 20 kt
SIGMETs :   Divers  Orages  Givrage  Turbulence  Onde Orograph.  Cendres Volcan.






- Altitude de l'aérodrome : 183 ft
- Code IATA : HAJ


EDDV - Hanover/Langenhagen Int.

DERNIER METAR :
  • 260120Z 23005KT 9999 BKN014 03/02 Q0992

METARs EXPIRÉS :
  • 260050Z 27003KT 230V310 9999 BKN015 03/02 Q0992
  • 260020Z 23009KT 9999 BKN015 BKN043 04/02 Q0992
  • 252350Z 22007KT 9999 FEW020 SCT033 03/02 Q0992
  • 252320Z 22007KT 9999 SCT030 03/02 Q0992
  • 252250Z 23007KT 9999 FEW032 04/02 Q0993

TAF TAF EDDV
Valide du 26 à 00h jusqu'au 27 à 00h UTC


252300Z 2600/2624 23005KT 9999 SCT012 SCT030
PROB40
TEMPO 2605/2610 3000 RASN BKN007
BECMG 2608/2610 27010KT
PROB30
TEMPO 2610/2619 30015G25KT SHRAGS BKN014CB
TEMPO 2621/2624 BKN008



MET'MAP, la Météo Aéronautique d'un coup d'oeil ! - Copyright ORBIFLY Décembre 2007 - Disclaimer

ORBIFLY MET'MAP TEAM :

Programmation & Développement : Alexandra Zaïnal
Sur une idée originale de : Baudouin d'Aumeries
Assistance à la programmation : Marc-Olivier Méhu
Soutien technique & logistique : Manuel Goepfert

Contact : metmap@orbifly.com




SOURCES & CREDITS :

   NOAA